Time;durP1;ratioP1;P1;durP2;ratioP2;P2;SDS_P1;SDS_P2;PMS_P1;PMS_P2;Temp;Humidity;BMP_temperature;BMP_pressure;BME280_temperature;BME280_humidity;BME280_pressure;Samples;Min_cycle;Max_cycle;Signal;HPM_P1;HPM_P2
2022/03/15 00:00:21;;;;;;;18.47;7.83;;;10.50;30.60;;;;;;5011387;28;20841;-74
2022/03/15 00:02:49;;;;;;;20.98;8.55;;;10.70;30.00;;;;;;5010699;28;20479;-74
2022/03/15 00:05:15;;;;;;;24.17;8.57;;;10.80;30.80;;;;;;5007362;28;20553;-76
2022/03/15 00:07:41;;;;;;;21.60;8.63;;;10.80;30.20;;;;;;5000069;28;20586;-75
2022/03/15 00:10:07;;;;;;;22.20;9.10;;;10.60;30.50;;;;;;5008847;28;20547;-75
2022/03/15 00:12:34;;;;;;;27.77;9.27;;;10.50;30.60;;;;;;5000187;28;20256;-75
2022/03/15 00:15:00;;;;;;;23.42;8.95;;;10.70;30.00;;;;;;5003762;28;20255;-75
2022/03/15 00:17:26;;;;;;;23.03;9.67;;;10.80;29.90;;;;;;5010889;28;20672;-75
2022/03/15 00:19:51;;;;;;;22.88;9.82;;;10.80;30.80;;;;;;5010370;28;20208;-75
2022/03/15 00:22:17;;;;;;;20.67;9.00;;;10.60;31.50;;;;;;5006500;28;20201;-75
2022/03/15 00:24:43;;;;;;;21.03;8.73;;;10.50;31.30;;;;;;5005608;28;20183;-74
2022/03/15 00:27:10;;;;;;;18.93;8.60;;;10.50;31.80;;;;;;5010107;28;20559;-75
2022/03/15 00:29:38;;;;;;;18.58;8.20;;;10.40;31.80;;;;;;5005011;28;20231;-74
2022/03/15 00:32:06;;;;;;;23.55;7.65;;;10.70;30.70;;;;;;5010101;28;20764;-74
2022/03/15 00:34:31;;;;;;;16.33;7.32;;;10.50;31.00;;;;;;5011712;28;20181;-74
2022/03/15 00:36:57;;;;;;;15.30;8.13;;;10.50;31.30;;;;;;5004207;28;20204;-75
2022/03/15 00:39:23;;;;;;;14.30;6.93;;;10.40;31.80;;;;;;5010080;28;20231;-76
2022/03/15 00:41:49;;;;;;;17.08;7.00;;;10.70;30.20;;;;;;5005208;28;20193;-76
2022/03/15 00:44:14;;;;;;;16.37;8.03;;;10.90;29.80;;;;;;5009257;28;20189;-75
2022/03/15 00:46:40;;;;;;;27.27;10.17;;;11.00;29.50;;;;;;5005100;28;20562;-75
2022/03/15 00:49:06;;;;;;;16.00;7.80;;;11.10;29.40;;;;;;5008616;28;20556;-75
2022/03/15 00:51:33;;;;;;;20.30;8.97;;;10.70;30.40;;;;;;5009790;28;20217;-76
2022/03/15 00:53:59;;;;;;;16.50;7.30;;;10.90;31.70;;;;;;5004757;28;20276;-75
2022/03/15 00:56:25;;;;;;;15.02;7.50;;;10.50;31.20;;;;;;5009304;28;20182;-75
2022/03/15 00:58:51;;;;;;;13.93;7.57;;;10.50;31.00;;;;;;5009386;28;20601;-75
2022/03/15 01:01:16;;;;;;;17.13;8.10;;;10.30;31.20;;;;;;5011185;28;20196;-74
2022/03/15 01:03:42;;;;;;;23.90;9.00;;;10.40;31.50;;;;;;5002929;28;20175;-75
2022/03/15 01:06:09;;;;;;;17.57;7.80;;;10.30;31.80;;;;;;5010388;28;20256;-75
2022/03/15 01:08:35;;;;;;;18.00;8.02;;;10.50;31.30;;;;;;5010454;28;20205;-75
2022/03/15 01:11:02;;;;;;;15.03;8.33;;;10.30;32.00;;;;;;5005242;28;20201;-75
2022/03/15 01:13:27;;;;;;;21.55;9.20;;;10.50;31.50;;;;;;5011745;28;20184;-75
2022/03/15 01:15:53;;;;;;;14.97;8.10;;;10.80;30.00;;;;;;5014481;28;20188;-75
2022/03/15 01:18:20;;;;;;;28.53;9.53;;;10.90;29.80;;;;;;5013757;28;20181;-76
2022/03/15 01:20:46;;;;;;;23.20;8.18;;;10.50;30.70;;;;;;5002230;28;20219;-76
2022/03/15 01:23:12;;;;;;;22.23;8.25;;;10.20;32.20;;;;;;5013816;28;20181;-76
2022/03/15 01:25:38;;;;;;;15.30;8.00;;;10.10;31.80;;;;;;5006259;28;20226;-75
2022/03/15 01:28:05;;;;;;;17.85;8.60;;;10.30;32.10;;;;;;5013238;28;20424;-76
2022/03/15 01:30:30;;;;;;;17.80;8.60;;;10.30;32.60;;;;;;5013489;28;20205;-76
2022/03/15 01:32:56;;;;;;;19.03;9.07;;;10.40;31.50;;;;;;5003484;28;20192;-76
2022/03/15 01:35:22;;;;;;;11.90;7.53;;;10.60;30.90;;;;;;5009553;28;20177;-76
2022/03/15 01:37:48;;;;;;;21.00;8.53;;;10.70;30.90;;;;;;5012466;28;20561;-75
2022/03/15 01:40:14;;;;;;;28.03;9.00;;;10.50;31.30;;;;;;5007032;28;20983;-75
2022/03/15 01:42:40;;;;;;;21.43;8.93;;;10.80;30.40;;;;;;5011128;28;20642;-75
2022/03/15 01:45:07;;;;;;;19.73;8.73;;;10.70;30.50;;;;;;5007858;28;20188;-74
2022/03/15 01:47:33;;;;;;;16.38;8.50;;;10.60;31.30;;;;;;5013992;28;20514;-75
2022/03/15 01:49:59;;;;;;;18.20;8.63;;;10.50;31.30;;;;;;5012920;28;20296;-75
2022/03/15 01:52:25;;;;;;;17.00;8.70;;;10.50;31.60;;;;;;5005733;28;20239;-75
2022/03/15 01:54:51;;;;;;;27.50;9.90;;;10.60;31.10;;;;;;5003026;28;20185;-74
2022/03/15 01:57:16;;;;;;;29.42;10.57;;;10.70;30.80;;;;;;5012058;28;20187;-75
2022/03/15 01:59:42;;;;;;;23.90;10.00;;;10.60;31.10;;;;;;5006965;28;20697;-74
2022/03/15 02:02:09;;;;;;;19.17;7.93;;;10.40;32.60;;;;;;5028949;28;20197;-75
2022/03/15 02:04:38;;;;;;;18.20;7.50;;;10.40;31.90;;;;;;5005469;28;20184;-75
2022/03/15 02:07:07;;;;;;;19.80;9.60;;;10.60;31.00;;;;;;5012642;28;20181;-75
2022/03/15 02:09:33;;;;;;;21.52;8.90;;;10.50;33.00;;;;;;5007677;28;20608;-74
2022/03/15 02:11:59;;;;;;;21.60;8.60;;;10.70;31.10;;;;;;5012137;28;20238;-75
2022/03/15 02:14:25;;;;;;;26.23;10.87;;;10.90;31.30;;;;;;5010176;28;20529;-75
2022/03/15 02:16:51;;;;;;;26.00;10.43;;;10.70;30.50;;;;;;5012357;28;20427;-75
2022/03/15 02:19:17;;;;;;;29.23;11.00;;;10.60;31.80;;;;;;5012061;28;20213;-75
2022/03/15 02:21:42;;;;;;;34.47;12.37;;;10.50;31.60;;;;;;5005530;28;20198;-74
2022/03/15 02:24:08;;;;;;;36.17;13.40;;;10.70;31.00;;;;;;5009804;28;20540;-75
2022/03/15 02:26:34;;;;;;;27.30;11.20;;;10.50;31.70;;;;;;5012155;28;20181;-75
2022/03/15 02:28:59;;;;;;;25.87;11.67;;;10.30;32.50;;;;;;5008653;28;20837;-75
2022/03/15 02:31:25;;;;;;;31.63;12.83;;;10.20;32.60;;;;;;5012821;28;20203;-75
2022/03/15 02:33:51;;;;;;;27.23;11.20;;;10.40;31.80;;;;;;5009725;28;20176;-75
2022/03/15 02:36:17;;;;;;;28.80;10.70;;;10.60;31.20;;;;;;5009992;28;20598;-76
2022/03/15 02:38:44;;;;;;;26.65;11.13;;;10.40;32.60;;;;;;5012693;28;20426;-76
2022/03/15 02:41:10;;;;;;;30.00;10.77;;;10.40;32.70;;;;;;5012999;28;20201;-75
2022/03/15 02:43:36;;;;;;;21.97;10.13;;;10.30;32.60;;;;;;5019800;28;20181;-75
2022/03/15 02:46:02;;;;;;;18.53;10.30;;;10.40;32.30;;;;;;5004676;28;20181;-74
2022/03/15 02:48:27;;;;;;;20.13;9.70;;;10.30;32.70;;;;;;5010047;28;20416;-75
2022/03/15 02:50:58;;;;;;;21.43;10.50;;;10.10;33.30;;;;;;5012606;28;20224;-75
2022/03/15 02:53:24;;;;;;;25.27;10.07;;;10.10;32.70;;;;;;5008697;28;20178;-75
2022/03/15 02:55:51;;;;;;;22.10;10.30;;;9.90;34.40;;;;;;5008140;28;20185;-75
2022/03/15 02:58:19;;;;;;;24.13;10.27;;;10.10;33.30;;;;;;5002958;28;20227;-75
2022/03/15 03:00:44;;;;;;;26.48;10.07;;;10.10;33.20;;;;;;5005344;28;20217;-75
2022/03/15 03:03:10;;;;;;;20.57;9.67;;;9.90;34.50;;;;;;5009179;28;20177;-75
2022/03/15 03:05:36;;;;;;;19.40;9.30;;;9.90;34.60;;;;;;5012254;28;20519;-75
2022/03/15 03:08:05;;;;;;;20.23;8.80;;;10.20;33.00;;;;;;5005018;28;20511;-74
2022/03/15 03:10:33;;;;;;;15.13;8.95;;;10.40;32.10;;;;;;5012084;28;20220;-75
2022/03/15 03:13:00;;;;;;;16.02;7.88;;;10.40;31.90;;;;;;5012424;28;20539;-74
2022/03/15 03:15:26;;;;;;;16.58;8.57;;;10.20;32.50;;;;;;5012425;28;20181;-75
2022/03/15 03:17:52;;;;;;;18.70;8.88;;;10.10;32.40;;;;;;5004474;28;20196;-75
2022/03/15 03:20:19;;;;;;;16.70;8.60;;;9.90;34.90;;;;;;5011772;28;20601;-75
2022/03/15 03:22:45;;;;;;;16.55;9.23;;;10.10;33.50;;;;;;5006268;28;20412;-75
2022/03/15 03:25:11;;;;;;;21.92;9.30;;;10.30;32.60;;;;;;5010695;28;20188;-75
2022/03/15 03:27:37;;;;;;;21.05;8.93;;;10.40;32.00;;;;;;5012130;28;20185;-74
2022/03/15 03:30:03;;;;;;;15.93;8.33;;;10.20;32.50;;;;;;5005815;28;20224;-74
2022/03/15 03:32:29;;;;;;;19.42;9.43;;;10.30;33.40;;;;;;5007687;28;20284;-74
2022/03/15 03:34:56;;;;;;;17.23;9.00;;;10.30;32.70;;;;;;5005247;28;20274;-75
2022/03/15 03:37:23;;;;;;;20.30;9.35;;;10.40;32.70;;;;;;5006970;28;20521;-74
2022/03/15 03:39:48;;;;;;;15.93;9.27;;;10.40;33.10;;;;;;5011516;28;20209;-75
2022/03/15 03:42:14;;;;;;;18.80;9.20;;;10.30;32.60;;;;;;5003987;28;20284;-75
2022/03/15 03:44:43;;;;;;;20.20;9.00;;;10.00;33.00;;;;;;5009805;28;20208;-75
2022/03/15 03:47:10;;;;;;;16.52;9.07;;;10.00;33.40;;;;;;5011812;28;20169;-74
2022/03/15 03:49:37;;;;;;;15.85;8.75;;;9.90;34.50;;;;;;5011488;28;20189;-75
2022/03/15 03:52:03;;;;;;;18.92;9.40;;;9.90;34.80;;;;;;5010166;28;20217;-75
2022/03/15 03:54:29;;;;;;;16.38;9.10;;;9.90;34.60;;;;;;5003487;28;20227;-74
2022/03/15 03:56:55;;;;;;;21.30;9.93;;;9.90;34.40;;;;;;5007285;28;20186;-75
2022/03/15 03:59:20;;;;;;;17.33;9.40;;;10.00;33.40;;;;;;5007743;28;20258;-75
2022/03/15 04:01:46;;;;;;;28.50;10.60;;;9.90;34.20;;;;;;5003602;28;20197;-75
2022/03/15 04:04:12;;;;;;;24.70;11.03;;;9.80;34.60;;;;;;5010664;28;20718;-75
2022/03/15 04:06:41;;;;;;;24.87;10.57;;;9.50;35.00;;;;;;5011420;28;20178;-74
2022/03/15 04:09:09;;;;;;;18.17;10.50;;;9.40;35.60;;;;;;5011154;28;20169;-75
2022/03/15 04:11:36;;;;;;;22.60;10.60;;;9.60;35.00;;;;;;5006864;28;20211;-75
2022/03/15 04:14:03;;;;;;;17.55;10.18;;;9.80;35.10;;;;;;5010639;28;20231;-74
2022/03/15 04:16:30;;;;;;;20.98;10.68;;;9.70;35.20;;;;;;5011076;28;20315;-75
2022/03/15 04:18:56;;;;;;;22.80;11.15;;;9.70;34.80;;;;;;5007244;28;20219;-74
2022/03/15 04:21:24;;;;;;;18.17;9.65;;;9.90;34.30;;;;;;4999465;28;20202;-75
2022/03/15 04:23:51;;;;;;;23.13;10.98;;;10.10;32.40;;;;;;5009268;28;20170;-74
2022/03/15 04:26:17;;;;;;;24.77;9.70;;;10.00;32.80;;;;;;5006800;28;20187;-75
2022/03/15 04:28:42;;;;;;;19.30;10.03;;;10.20;32.50;;;;;;5000746;28;20178;-74
2022/03/15 04:31:08;;;;;;;31.33;10.53;;;10.20;32.50;;;;;;5005822;28;20527;-75
2022/03/15 04:33:34;;;;;;;23.13;9.67;;;10.10;32.50;;;;;;5008163;28;20181;-75
2022/03/15 04:35:59;;;;;;;30.90;10.60;;;10.40;32.20;;;;;;5003738;28;20179;-75
2022/03/15 04:38:25;;;;;;;19.10;9.90;;;10.10;33.00;;;;;;5003390;28;20538;-75
2022/03/15 04:40:51;;;;;;;21.67;9.20;;;9.80;35.50;;;;;;5007856;28;20212;-75
2022/03/15 04:43:17;;;;;;;29.90;10.03;;;10.00;33.80;;;;;;5003798;28;20178;-74
2022/03/15 04:45:42;;;;;;;17.40;9.17;;;9.80;35.40;;;;;;5007334;28;20604;-74
2022/03/15 04:48:08;;;;;;;31.37;10.27;;;9.80;35.50;;;;;;5007220;28;20461;-75
2022/03/15 04:50:34;;;;;;;16.70;9.90;;;9.80;35.20;;;;;;5005347;28;20216;-75
2022/03/15 04:53:00;;;;;;;18.43;9.33;;;9.90;35.60;;;;;;5014031;28;20420;-75
2022/03/15 04:55:26;;;;;;;32.47;9.53;;;9.90;36.30;;;;;;5007414;28;20180;-75
2022/03/15 04:57:52;;;;;;;21.57;10.10;;;10.00;34.50;;;;;;5007039;28;20438;-76
2022/03/15 05:00:18;;;;;;;18.55;9.63;;;10.00;34.50;;;;;;5014602;28;20489;-75
2022/03/15 05:02:45;;;;;;;20.27;10.68;;;9.90;35.70;;;;;;5014769;28;20212;-75
2022/03/15 05:05:13;;;;;;;15.65;9.70;;;9.90;35.20;;;;;;5014201;28;20237;-75
2022/03/15 05:07:38;;;;;;;19.73;9.82;;;10.30;33.50;;;;;;5005483;28;20173;-74
2022/03/15 05:12:49;;;;;;;23.63;10.77;;;10.10;33.70;;;;;;5014689;28;20566;-75
2022/03/15 05:15:15;;;;;;;21.13;10.80;;;9.90;36.10;;;;;;5014897;28;20275;-75
2022/03/15 05:17:41;;;;;;;20.30;9.63;;;10.20;33.50;;;;;;5014518;28;20929;-75
2022/03/15 05:20:07;;;;;;;21.53;12.03;;;10.10;34.30;;;;;;5004980;28;20212;-75
2022/03/15 05:22:34;;;;;;;18.40;11.02;;;9.90;35.20;;;;;;5013858;28;20443;-75
2022/03/15 05:25:00;;;;;;;36.58;10.82;;;9.90;36.30;;;;;;5005154;28;20256;-75
2022/03/15 05:27:26;;;;;;;18.42;10.57;;;10.10;34.20;;;;;;5014731;28;20230;-75
2022/03/15 05:29:53;;;;;;;21.02;10.77;;;10.00;34.70;;;;;;5014189;28;20200;-73
2022/03/15 05:32:19;;;;;;;24.50;11.35;;;10.00;34.40;;;;;;5014914;28;20202;-75
2022/03/15 05:34:45;;;;;;;29.57;10.63;;;10.00;34.50;;;;;;5014331;28;20181;-75
2022/03/15 05:37:10;;;;;;;22.80;11.70;;;10.00;34.70;;;;;;5006282;28;20427;-74
2022/03/15 05:39:36;;;;;;;22.77;11.40;;;10.00;34.90;;;;;;5014917;28;20544;-76
2022/03/15 05:42:03;;;;;;;21.70;11.18;;;9.90;35.50;;;;;;5012942;28;20229;-76
2022/03/15 05:44:28;;;;;;;18.63;10.63;;;9.90;36.00;;;;;;5013519;28;20212;-76
2022/03/15 05:46:55;;;;;;;35.57;12.67;;;9.90;35.70;;;;;;5014339;28;20271;-76
2022/03/15 05:49:20;;;;;;;23.42;12.07;;;9.80;35.40;;;;;;5006013;28;20181;-75
2022/03/15 05:51:46;;;;;;;30.20;12.73;;;9.70;35.30;;;;;;5010668;28;20227;-75
2022/03/15 05:54:12;;;;;;;33.73;12.50;;;9.80;35.50;;;;;;5013837;28;20180;-75
2022/03/15 05:56:39;;;;;;;25.33;12.43;;;9.80;35.30;;;;;;5029819;28;20176;-75
2022/03/15 05:59:06;;;;;;;30.45;13.07;;;10.10;34.00;;;;;;5033632;28;20174;-76
2022/03/15 06:01:32;;;;;;;26.70;12.65;;;10.20;33.20;;;;;;5036756;28;20231;-76
2022/03/15 06:03:59;;;;;;;26.37;11.10;;;10.00;34.20;;;;;;5025755;28;20187;-75
2022/03/15 06:06:25;;;;;;;24.70;11.45;;;10.20;32.90;;;;;;5002857;28;20435;-75
2022/03/15 06:08:53;;;;;;;29.95;12.65;;;10.30;33.40;;;;;;5009873;28;20185;-76
2022/03/15 06:11:19;;;;;;;28.20;11.45;;;10.60;32.00;;;;;;5013355;28;20199;-76
2022/03/15 06:13:45;;;;;;;30.37;12.50;;;10.50;32.80;;;;;;5005370;28;20287;-76
2022/03/15 06:16:11;;;;;;;26.27;11.73;;;10.30;33.90;;;;;;5013828;28;20478;-76
2022/03/15 06:18:37;;;;;;;30.30;10.83;;;10.40;33.70;;;;;;5013702;28;20796;-76
2022/03/15 06:21:03;;;;;;;22.67;11.85;;;10.40;33.40;;;;;;5005045;28;20479;-76
2022/03/15 06:23:29;;;;;;;33.88;12.75;;;10.70;33.00;;;;;;5013404;28;20673;-76
2022/03/15 06:25:55;;;;;;;23.57;11.50;;;10.60;32.90;;;;;;5005898;28;20186;-76
2022/03/15 06:28:20;;;;;;;27.50;11.90;;;10.90;32.80;;;;;;5012754;28;20192;-76
2022/03/15 06:30:46;;;;;;;22.20;12.90;;;11.00;31.80;;;;;;5013546;28;20303;-75
2022/03/15 06:33:13;;;;;;;26.30;13.75;;;10.80;32.10;;;;;;5012633;28;20191;-76
2022/03/15 06:35:39;;;;;;;25.05;13.57;;;10.90;32.60;;;;;;5013880;28;20179;-76
2022/03/15 06:38:04;;;;;;;26.23;12.97;;;10.60;32.90;;;;;;5013606;28;20173;-76
2022/03/15 06:40:33;;;;;;;24.90;11.27;;;10.50;32.80;;;;;;5004875;28;20224;-75
2022/03/15 06:42:59;;;;;;;50.40;11.30;;;9.90;34.90;;;;;;5012848;28;20210;-76
2022/03/15 06:45:25;;;;;;;31.07;12.30;;;10.10;34.30;;;;;;5004289;28;20185;-76
2022/03/15 06:47:51;;;;;;;30.70;12.13;;;10.30;33.50;;;;;;5013384;28;20176;-76
2022/03/15 06:50:16;;;;;;;37.27;12.57;;;10.60;32.90;;;;;;5013072;28;20184;-76
2022/03/15 06:52:44;;;;;;;24.20;12.10;;;10.60;32.90;;;;;;5004598;28;20436;-75
2022/03/15 06:55:11;;;;;;;39.40;12.63;;;10.30;33.80;;;;;;5006891;28;20205;-76
2022/03/15 06:57:37;;;;;;;25.08;12.48;;;10.40;33.80;;;;;;5010827;28;20184;-75
2022/03/15 07:00:08;;;;;;;26.80;11.48;;;10.50;33.40;;;;;;5013496;28;20193;-76
2022/03/15 07:02:34;;;;;;;32.88;11.85;;;10.80;32.70;;;;;;5005721;28;20535;-75
2022/03/15 07:05:00;;;;;;;27.73;11.53;;;11.00;31.90;;;;;;5012522;28;20212;-76
2022/03/15 07:07:25;;;;;;;30.13;11.70;;;11.30;31.90;;;;;;5004601;28;20200;-76
2022/03/15 07:09:52;;;;;;;30.70;12.10;;;11.00;31.40;;;;;;5016445;28;20178;-76
2022/03/15 07:12:19;;;;;;;27.75;12.15;;;11.10;31.80;;;;;;5007661;28;20201;-76
2022/03/15 07:14:45;;;;;;;22.63;11.83;;;10.90;31.90;;;;;;5012292;28;20189;-76
2022/03/15 07:17:11;;;;;;;27.85;11.40;;;11.00;31.80;;;;;;5004173;28;20424;-76
2022/03/15 07:19:37;;;;;;;57.30;26.20;;;11.00;31.70;;;;;;5004168;28;20597;-76
2022/03/15 07:22:03;;;;;;;28.70;12.70;;;11.20;32.10;;;;;;5012036;28;20447;-76
2022/03/15 07:24:28;;;;;;;33.20;12.50;;;11.30;31.50;;;;;;5000572;28;20902;-75
2022/03/15 07:26:54;;;;;;;30.03;12.13;;;11.40;31.60;;;;;;5009098;28;20421;-76
2022/03/15 07:29:20;;;;;;;36.67;13.30;;;11.30;31.40;;;;;;5006935;28;20216;-76
2022/03/15 07:31:45;;;;;;;23.77;12.00;;;11.20;32.00;;;;;;5003684;28;20204;-76
2022/03/15 07:34:11;;;;;;;30.57;13.47;;;11.20;32.20;;;;;;5011272;28;20219;-76
2022/03/15 07:36:37;;;;;;;22.53;11.00;;;11.10;32.10;;;;;;5003938;28;20185;-76
2022/03/15 07:39:05;;;;;;;21.20;11.23;;;10.90;32.00;;;;;;5011595;28;20173;-76
2022/03/15 07:41:39;;;;;;;24.87;11.30;;;11.10;32.80;;;;;;5004603;28;20221;-76
2022/03/15 07:44:07;;;;;;;25.50;11.73;;;11.30;31.80;;;;;;5011658;28;20850;-76
2022/03/15 07:46:33;;;;;;;21.90;10.13;;;11.30;32.50;;;;;;5011758;28;20420;-76
2022/03/15 07:48:59;;;;;;;25.60;11.47;;;11.00;32.50;;;;;;5010900;28;20425;-76
2022/03/15 07:51:25;;;;;;;30.07;11.60;;;10.90;33.20;;;;;;5005010;28;20565;-76
2022/03/15 07:53:51;;;;;;;27.23;12.33;;;11.10;32.80;;;;;;5009389;28;20431;-76
2022/03/15 07:56:17;;;;;;;22.47;12.07;;;11.20;33.40;;;;;;5011855;28;20257;-76
2022/03/15 07:58:43;;;;;;;26.37;12.60;;;11.40;33.00;;;;;;5010888;28;20181;-75
2022/03/15 08:01:09;;;;;;;28.73;12.00;;;11.40;33.00;;;;;;5003807;28;20548;-76
2022/03/15 08:03:34;;;;;;;22.50;11.67;;;11.50;33.20;;;;;;5003671;28;20824;-76
2022/03/15 08:06:00;;;;;;;31.80;12.93;;;11.50;33.40;;;;;;5011609;28;20199;-76
2022/03/15 08:08:26;;;;;;;27.33;11.03;;;11.50;33.70;;;;;;5002701;28;20677;-76
2022/03/15 08:10:52;;;;;;;22.37;10.80;;;11.60;33.40;;;;;;5009063;28;20448;-76
2022/03/15 08:13:18;;;;;;;24.13;11.00;;;11.70;32.10;;;;;;5003502;28;20212;-76
2022/03/15 08:15:44;;;;;;;28.53;12.10;;;11.80;32.30;;;;;;5003878;28;20432;-76
2022/03/15 08:18:10;;;;;;;28.53;11.40;;;12.00;31.60;;;;;;5007688;28;20946;-76
2022/03/15 08:20:40;;;;;;;30.80;11.73;;;12.10;31.80;;;;;;5003582;28;20218;-76
2022/03/15 08:23:07;;;;;;;27.50;10.67;;;12.20;32.30;;;;;;5002890;28;20170;-76
2022/03/15 08:25:33;;;;;;;30.37;11.47;;;12.20;32.50;;;;;;5007774;28;22010;-75
2022/03/15 08:28:00;;;;;;;26.47;12.43;;;12.70;32.50;;;;;;5000593;28;20516;-76
2022/03/15 08:30:27;;;;;;;24.30;11.20;;;12.30;31.60;;;;;;5010980;28;20423;-76
2022/03/15 08:32:53;;;;;;;22.50;11.57;;;12.40;33.20;;;;;;5010925;28;20432;-76
2022/03/15 08:35:19;;;;;;;19.00;10.87;;;12.40;32.10;;;;;;5007251;28;20568;-75
2022/03/15 08:37:50;;;;;;;31.23;12.43;;;12.50;32.40;;;;;;5019307;28;20425;-76
2022/03/15 08:40:17;;;;;;;24.47;12.10;;;12.70;32.30;;;;;;5009954;28;20465;-80
2022/03/15 08:42:43;;;;;;;23.70;11.37;;;12.80;32.60;;;;;;5011562;28;20472;-81
2022/03/15 08:45:10;;;;;;;23.80;10.67;;;12.60;31.50;;;;;;5005298;28;20879;-81
2022/03/15 08:47:37;;;;;;;18.10;11.50;;;12.70;32.40;;;;;;5006881;28;20511;-81
2022/03/15 08:50:05;;;;;;;28.47;12.17;;;12.80;31.00;;;;;;5007050;28;20413;-81
2022/03/15 08:52:31;;;;;;;19.30;11.57;;;12.30;31.80;;;;;;5009481;28;20437;-81
2022/03/15 08:54:56;;;;;;;23.90;11.20;;;12.40;32.20;;;;;;5008624;28;20438;-80
2022/03/15 08:57:23;;;;;;;39.07;11.40;;;12.50;32.70;;;;;;5006720;28;20176;-80
2022/03/15 08:59:49;;;;;;;20.40;11.30;;;12.70;32.70;;;;;;5000810;28;20201;-75
2022/03/15 09:02:17;;;;;;;28.30;11.67;;;12.80;31.80;;;;;;5001028;28;20496;-76
2022/03/15 09:04:43;;;;;;;26.33;12.73;;;12.90;33.00;;;;;;5000408;28;20994;-74
2022/03/15 09:07:09;;;;;;;26.43;12.03;;;12.60;33.60;;;;;;4998874;28;20449;-73
2022/03/15 09:09:34;;;;;;;27.93;13.10;;;12.10;34.30;;;;;;4999891;28;20455;-73
2022/03/15 09:12:01;;;;;;;27.70;13.50;;;11.80;34.00;;;;;;5001897;28;20201;-73
2022/03/15 09:14:27;;;;;;;23.80;13.53;;;11.90;34.60;;;;;;5000391;28;20170;-73
2022/03/15 09:16:52;;;;;;;36.43;13.70;;;12.60;34.40;;;;;;4998371;28;20437;-76
2022/03/15 09:19:18;;;;;;;25.60;13.63;;;12.50;34.70;;;;;;5005094;28;20185;-74
2022/03/15 09:21:44;;;;;;;19.90;13.17;;;12.60;34.80;;;;;;5009122;28;20209;-73
2022/03/15 09:24:09;;;;;;;26.40;14.93;;;12.80;34.40;;;;;;5002487;28;20183;-73
2022/03/15 09:26:36;;;;;;;27.80;13.50;;;13.00;35.10;;;;;;5003712;28;20429;-75
2022/03/15 09:29:02;;;;;;;24.53;14.00;;;13.00;34.70;;;;;;5002293;28;20210;-75
2022/03/15 09:31:28;;;;;;;28.43;13.80;;;12.90;34.50;;;;;;5010141;28;20440;-75
2022/03/15 09:33:53;;;;;;;24.47;13.50;;;13.10;34.80;;;;;;5008696;28;20792;-75
2022/03/15 09:36:19;;;;;;;26.47;14.10;;;13.20;34.00;;;;;;5012877;28;20305;-75
2022/03/15 09:38:45;;;;;;;26.33;13.57;;;13.10;33.80;;;;;;5012927;28;20179;-75
2022/03/15 09:41:14;;;;;;;29.17;13.03;;;13.40;34.10;;;;;;5004037;28;20206;-75
2022/03/15 09:43:45;;;;;;;23.43;13.50;;;13.30;34.40;;;;;;5012898;28;20423;-76
2022/03/15 09:46:12;;;;;;;31.30;13.67;;;13.40;34.30;;;;;;5010250;28;20724;-75
2022/03/15 09:48:40;;;;;;;37.47;14.27;;;13.20;34.20;;;;;;5012923;28;20430;-76
2022/03/15 09:51:11;;;;;;;20.50;12.97;;;13.30;34.50;;;;;;5005251;28;20470;-76
2022/03/15 09:53:38;;;;;;;21.20;13.60;;;13.50;33.70;;;;;;5014011;28;20985;-75
2022/03/15 09:56:04;;;;;;;27.03;13.10;;;13.50;33.00;;;;;;5013397;28;20457;-75
2022/03/15 09:58:29;;;;;;;27.90;12.67;;;13.60;33.40;;;;;;5013003;28;20449;-76
2022/03/15 10:00:57;;;;;;;29.13;12.70;;;13.40;33.70;;;;;;5012365;28;20202;-74
2022/03/15 10:03:24;;;;;;;31.70;13.60;;;13.40;33.00;;;;;;5004753;28;20690;-72
2022/03/15 10:05:50;;;;;;;23.87;14.07;;;13.20;33.00;;;;;;5013463;28;20421;-73
2022/03/15 10:08:17;;;;;;;28.33;13.73;;;13.00;35.20;;;;;;5012730;28;20517;-73
2022/03/15 10:10:43;;;;;;;27.07;13.30;;;13.30;34.60;;;;;;5012898;28;20438;-73
2022/03/15 10:13:09;;;;;;;30.03;12.90;;;13.40;33.20;;;;;;5013236;28;20425;-74
2022/03/15 10:15:35;;;;;;;27.30;12.73;;;13.50;33.10;;;;;;5005485;28;20426;-74
2022/03/15 10:18:07;;;;;;;37.57;13.53;;;13.60;32.60;;;;;;5012450;28;20893;-74
2022/03/15 10:20:40;;;;;;;23.93;12.80;;;14.00;31.70;;;;;;5011849;28;20265;-73
2022/03/15 10:23:08;;;;;;;20.60;11.77;;;13.90;32.20;;;;;;5008887;28;20443;-73
2022/03/15 10:25:35;;;;;;;26.10;12.00;;;14.00;32.00;;;;;;5012802;28;20457;-73
2022/03/15 10:28:03;;;;;;;27.87;12.40;;;13.90;32.40;;;;;;5001779;28;20433;-74
2022/03/15 10:30:30;;;;;;;24.50;11.77;;;13.50;33.40;;;;;;5003153;28;20445;-73
2022/03/15 10:32:57;;;;;;;33.77;11.80;;;13.20;34.00;;;;;;5007983;28;20461;-73
2022/03/15 10:35:26;;;;;;;23.23;12.40;;;13.10;35.00;;;;;;5009319;28;20435;-73
2022/03/15 10:37:53;;;;;;;29.27;13.13;;;12.70;35.50;;;;;;5003925;28;20427;-73
2022/03/15 10:40:30;;;;;;;27.83;12.60;;;12.40;37.30;;;;;;5011024;28;20465;-73
2022/03/15 10:43:12;;;;;;;22.70;12.60;;;12.10;38.80;;;;;;5005820;28;20431;-73
2022/03/15 10:45:42;;;;;;;23.57;13.63;;;12.60;38.00;;;;;;5005082;28;20926;-73
2022/03/15 10:48:21;;;;;;;42.43;13.23;;;13.20;35.30;;;;;;5004534;28;20422;-73
2022/03/15 10:50:54;;;;;;;27.80;14.07;;;13.10;35.20;;;;;;5012122;28;20466;-73
2022/03/15 10:53:21;;;;;;;25.20;13.37;;;12.70;36.40;;;;;;5004723;28;20507;-73
2022/03/15 10:55:47;;;;;;;26.50;13.60;;;13.40;35.50;;;;;;5012850;28;20467;-73
2022/03/15 10:58:19;;;;;;;26.07;14.07;;;13.50;34.30;;;;;;5012124;28;20426;-73
2022/03/15 11:00:46;;;;;;;34.67;13.17;;;12.70;37.60;;;;;;5006043;28;20896;-73
2022/03/15 11:03:15;;;;;;;22.80;12.50;;;12.50;37.80;;;;;;5011093;28;20423;-73
2022/03/15 11:05:41;;;;;;;20.30;11.80;;;12.10;39.80;;;;;;5004444;28;20841;-73
2022/03/15 11:08:14;;;;;;;27.90;12.60;;;11.60;42.40;;;;;;5012201;28;20930;-73
2022/03/15 11:10:41;;;;;;;28.13;13.43;;;11.40;45.00;;;;;;5012366;28;20442;-73
2022/03/15 11:13:11;;;;;;;25.93;14.77;;;12.10;41.50;;;;;;5011874;28;20427;-73
2022/03/15 11:16:04;;;;;;;23.17;12.10;;;12.00;43.00;;;;;;5004044;28;20514;-73
2022/03/15 11:18:34;;;;;;;29.10;14.10;;;12.70;41.00;;;;;;5000550;28;20424;-73
2022/03/15 11:21:02;;;;;;;25.07;12.67;;;13.20;37.90;;;;;;5006024;28;20561;-73
2022/03/15 11:23:30;;;;;;;27.90;13.33;;;13.40;37.00;;;;;;5007592;28;20433;-73
2022/03/15 11:26:02;;;;;;;25.90;13.50;;;13.70;36.30;;;;;;5005769;28;20511;-73
2022/03/15 11:28:30;;;;;;;20.73;13.03;;;14.10;34.60;;;;;;5002625;28;20828;-73
2022/03/15 11:30:57;;;;;;;21.13;13.70;;;13.40;37.10;;;;;;5005591;28;20445;-73
2022/03/15 11:33:25;;;;;;;25.13;13.13;;;13.50;38.50;;;;;;5011782;28;20456;-73
2022/03/15 11:35:52;;;;;;;31.80;14.00;;;13.80;37.40;;;;;;5004639;28;20578;-73
2022/03/15 11:38:18;;;;;;;25.17;14.40;;;13.70;37.70;;;;;;5011908;28;20514;-73
2022/03/15 11:40:45;;;;;;;29.10;13.57;;;13.60;37.30;;;;;;5008666;28;20558;-73
2022/03/15 11:43:36;;;;;;;27.70;14.40;;;13.60;37.60;;;;;;5007463;28;20444;-73
2022/03/15 11:46:27;;;;;;;25.17;15.30;;;13.60;38.60;;;;;;5011474;28;20429;-73
2022/03/15 11:49:19;;;;;;;31.70;16.30;;;13.40;40.70;;;;;;5004001;28;20420;-73
2022/03/15 11:52:32;;;;;;;27.63;14.30;;;13.40;40.80;;;;;;4998917;28;20464;-73
2022/03/15 11:55:12;;;;;;;31.17;15.00;;;13.40;40.50;;;;;;4924755;29;20442;-71
2022/03/15 11:57:51;;;;;;;33.83;15.10;;;13.20;41.10;;;;;;4929994;29;20780;-71
2022/03/15 12:00:50;;;;;;;27.60;15.43;;;12.90;42.30;;;;;;4926677;29;20475;-71
2022/03/15 12:03:18;;;;;;;22.53;14.37;;;12.70;44.50;;;;;;4851904;29;20893;-71
2022/03/15 12:05:47;;;;;;;23.40;14.97;;;12.80;44.30;;;;;;4856480;29;20513;-71
2022/03/15 12:08:20;;;;;;;26.80;16.33;;;13.10;44.90;;;;;;4856675;29;20441;-71
2022/03/15 12:10:57;;;;;;;34.33;16.67;;;13.00;46.60;;;;;;4856088;29;20501;-71
2022/03/15 12:13:37;;;;;;;31.73;14.68;;;13.20;46.00;;;;;;4856622;29;20446;-71
2022/03/15 12:16:15;;;;;;;33.07;15.23;;;13.30;46.60;;;;;;4856725;29;20180;-71
2022/03/15 12:18:48;;;;;;;25.77;13.40;;;13.40;46.90;;;;;;4854969;29;20523;-71
2022/03/15 12:21:14;;;;;;;18.40;10.00;;;13.60;46.40;;;;;;4854075;29;20485;-71
2022/03/15 12:23:48;;;;;;;8.77;5.20;;;13.90;45.90;;;;;;4855743;29;20439;-71
2022/03/15 12:26:20;;;;;;;10.63;6.20;;;14.00;45.30;;;;;;4855342;29;20483;-71
2022/03/15 12:29:03;;;;;;;10.83;4.80;;;14.00;44.90;;;;;;4855048;29;20552;-70
2022/03/15 12:31:47;;;;;;;8.00;4.90;;;13.80;43.90;;;;;;4930368;29;20912;-71
2022/03/15 12:34:17;;;;;;;10.53;4.40;;;14.00;47.00;;;;;;4932124;29;20467;-72